»·PEaware :: N72G O69-O09

N72G :: O69-O09

FLIGHT INFORMATION

Flight Status: Arrived
Operator: Privately registered:
United States
More flights under this callsign
Pilot: Joe K. (15257)
Aircraft: BEECH AIRCRAFT A90-E90 KING AIR
(BE9L)
More flights by this aircraft type
Origin: O69 Petaluma Mun
United States
Destination: O09 Round Valley
United States
More flights between these airports :: More routes between these airports
Route: +ENI
File this flight plan on PilotEdge
Remarks:
Altitude:
(Current/Filed)
10,000ft
Speed:
(Current/Filed)
210kts
Departed: 06-May-17 02:04 PM
Arrived: 06-May-17 02:43 PM
Distance/Time
Traveled:
97nm/0:38
Distance/Time
To Go:
Arrived

Flight Plot

Page will automatically refresh every two minutes.

Flight plan parsing failed; only flown route is shown


Map Options




Map Legend


Flown Route
Filed Route
Departure Airport
Arrival Airport
Navaid (VOR, NDB)
Fix

Horizontal Profiles

Position Reports

Time Latitude Longitude Heading Altitude Ground
Speed
06-May-17 13:54 38.258264 -122.609511 35 90ft 0kts
06-May-17 13:55 38.258264 -122.609511 35 90ft 0kts
06-May-17 13:56 38.258264 -122.609510 35 90ft 0kts
06-May-17 13:57 38.258264 -122.609510 35 90ft 0kts
06-May-17 13:58 38.258264 -122.609510 35 90ft 0kts
06-May-17 13:59 38.258264 -122.609510 35 90ft 0kts
06-May-17 14:00 38.258264 -122.609510 35 90ft 0kts
06-May-17 14:01 38.258233 -122.609517 73 90ft 2kts
06-May-17 14:02 38.257702 -122.607031 129 90ft 19kts
06-May-17 14:03 38.254582 -122.601478 124 90ft 15kts
06-May-17 14:04 38.254642 -122.600571 43 90ft 0kts
06-May-17 14:05 38.254689 -122.600515 42 90ft 5kts
06-May-17 14:06 38.267777 -122.623543 300 969ft 112kts
06-May-17 14:07 38.286917 -122.647183 322 2678ft 126kts
06-May-17 14:08 38.320626 -122.662306 336 4701ft 136kts
06-May-17 14:09 38.354051 -122.686624 327 6615ft 136kts
06-May-17 14:10 38.381488 -122.713849 325 8410ft 127kts
06-May-17 14:11 38.382485 -122.769540 294 9992ft 168kts
06-May-17 14:12 38.414756 -122.805842 325 9969ft 206kts
06-May-17 14:16 38.603765 -122.993210 325 9952ft 219kts
06-May-17 14:17 38.652083 -123.041570 325 9952ft 222kts
06-May-17 14:18 38.704313 -123.082340 340 9952ft 220kts
06-May-17 14:19 38.760651 -123.113149 340 9951ft 219kts
06-May-17 14:20 38.816314 -123.143661 340 9988ft 215kts
06-May-17 14:21 38.871262 -123.173839 340 10005ft 216kts
06-May-17 14:22 38.926264 -123.204101 340 10005ft 216kts
06-May-17 14:23 38.981520 -123.234557 340 10005ft 216kts
06-May-17 14:24 39.036686 -123.265020 340 10005ft 215kts
06-May-17 14:25 39.091620 -123.295388 340 9768ft 219kts
06-May-17 14:26 39.149954 -123.300793 12 9066ft 218kts
06-May-17 14:27 39.209492 -123.286352 12 8443ft 217kts
06-May-17 14:28 39.264281 -123.273026 12 8404ft 186kts
06-May-17 14:29 39.313353 -123.261382 12 8406ft 175kts
06-May-17 14:30 39.361918 -123.257290 5 8406ft 174kts
06-May-17 14:31 39.409154 -123.250751 30 8412ft 169kts
06-May-17 14:32 39.450459 -123.220977 30 8406ft 170kts
06-May-17 14:33 39.491989 -123.191222 29 8406ft 171kts
06-May-17 14:34 39.535392 -123.166135 16 8407ft 173kts
06-May-17 14:35 39.582126 -123.151240 16 8406ft 173kts
06-May-17 14:36 39.629515 -123.152038 342 8329ft 182kts
06-May-17 14:37 39.679432 -123.179473 340 7456ft 209kts
06-May-17 14:38 39.732622 -123.208517 340 6307ft 186kts
06-May-17 14:39 39.768784 -123.241274 290 4975ft 163kts
06-May-17 14:40 39.788215 -123.285906 353 3789ft 148kts
06-May-17 14:41 39.813004 -123.257044 82 3073ft 132kts
06-May-17 14:42 39.803762 -123.209198 103 2563ft 132kts
06-May-17 14:43 39.773221 -123.203969 239 2572ft 123kts
06-May-17 14:44 39.779576 -123.239204 296 2181ft 105kts
06-May-17 14:45 39.789628 -123.265596 295 1437ft 21kts
06-May-17 14:46 39.789444 -123.267718 297 1437ft 0kts
06-May-17 14:47 39.789444 -123.267718 297 1437ft 0kts
06-May-17 14:48 39.789444 -123.267718 297 1437ft 0kts
06-May-17 14:49 39.789444 -123.267718 297 1437ft 0kts
06-May-17 14:50 39.789444 -123.267718 297 1437ft 0kts
06-May-17 14:51 39.789444 -123.267718 297 1437ft 0kts
06-May-17 14:56 39.791867 -123.272016 114 1437ft 0kts
06-May-17 14:57 39.791867 -123.272016 114 1437ft 0kts
06-May-17 14:58 39.791867 -123.272016 114 1437ft 0kts

Navigation Log

Ident Type
Flight plan parsing failed, navigation log unavailable